createdAt,value
2023-04-15T00:01:45.758Z,6.81
2023-04-15T00:04:12.340Z,6.77
2023-04-15T00:06:39.755Z,6.75
2023-04-15T00:09:06.255Z,6.76
2023-04-15T00:11:32.701Z,6.76
2023-04-15T00:13:59.272Z,6.77
2023-04-15T00:16:25.777Z,6.77
2023-04-15T00:18:52.412Z,6.74
2023-04-15T00:21:18.786Z,6.74
2023-04-15T00:23:45.259Z,6.76
2023-04-15T00:26:12.571Z,6.74
2023-04-15T00:28:39.271Z,6.60
2023-04-15T00:31:05.806Z,6.51
2023-04-15T00:33:32.732Z,6.42
2023-04-15T00:35:59.342Z,6.39
2023-04-15T00:38:25.820Z,6.35
2023-04-15T00:40:53.264Z,6.29
2023-04-15T00:43:20.157Z,6.24
2023-04-15T00:45:47.305Z,6.24
2023-04-15T00:48:14.247Z,6.27
2023-04-15T00:50:40.857Z,6.26
2023-04-15T00:53:07.284Z,6.26
2023-04-15T00:55:33.817Z,6.23
2023-04-15T00:58:00.502Z,6.23
2023-04-15T01:00:27.316Z,6.19
2023-04-15T01:02:53.950Z,6.20
2023-04-15T01:05:20.534Z,6.24
2023-04-15T01:07:48.630Z,6.25
2023-04-15T01:10:15.173Z,6.22
2023-04-15T01:12:43.306Z,6.22
2023-04-15T01:15:10.972Z,6.25
2023-04-15T01:17:38.117Z,6.24
2023-04-15T01:20:10.018Z,6.21
2023-04-15T01:22:36.474Z,6.15
2023-04-15T01:25:17.451Z,6.11
2023-04-15T01:27:44.116Z,6.08
2023-04-15T01:30:11.449Z,6.10
2023-04-15T01:32:38.513Z,6.06
2023-04-15T01:35:05.351Z,6.04
2023-04-15T01:37:32.429Z,6.02
2023-04-15T01:39:58.856Z,6.06
2023-04-15T01:42:25.267Z,6.06
2023-04-15T01:44:51.922Z,6.11
2023-04-15T01:47:18.501Z,6.06
2023-04-15T01:49:44.991Z,6.02
2023-04-15T01:52:11.407Z,6.00
2023-04-15T01:54:40.026Z,5.97
2023-04-15T01:57:06.475Z,5.97
2023-04-15T01:59:33.026Z,5.96
2023-04-15T02:02:00.393Z,5.93
2023-04-15T02:04:27.909Z,5.89
2023-04-15T02:06:54.480Z,5.84
2023-04-15T02:09:21.544Z,5.83
2023-04-15T02:11:47.985Z,5.77
2023-04-15T02:14:14.418Z,5.75
2023-04-15T02:16:41.215Z,5.72
2023-04-15T02:19:08.073Z,5.67
2023-04-15T02:21:37.321Z,5.63
2023-04-15T02:24:04.257Z,5.60
2023-04-15T02:26:32.621Z,5.52
2023-04-15T02:28:59.687Z,5.47
2023-04-15T02:31:26.513Z,5.41
2023-04-15T02:33:53.009Z,5.37
2023-04-15T02:36:21.178Z,5.34
2023-04-15T02:38:47.663Z,5.33
2023-04-15T02:41:15.634Z,5.32
2023-04-15T02:43:44.215Z,5.32
2023-04-15T02:46:14.599Z,5.30
2023-04-15T02:48:41.628Z,5.26
2023-04-15T02:51:31.201Z,5.24
2023-04-15T02:53:58.209Z,5.21
2023-04-15T02:56:24.643Z,5.16
2023-04-15T02:58:51.346Z,5.08
2023-04-15T03:01:17.859Z,5.02
2023-04-15T03:03:44.498Z,5.00
2023-04-15T03:06:10.960Z,4.96
2023-04-15T03:08:37.386Z,4.90
2023-04-15T03:11:04.638Z,4.80
2023-04-15T03:13:32.307Z,4.80
2023-04-15T03:16:02.960Z,4.75
2023-04-15T03:18:31.051Z,4.74
2023-04-15T03:21:01.433Z,4.80
2023-04-15T03:23:28.692Z,4.78
2023-04-15T03:25:57.723Z,4.75
2023-04-15T03:28:24.535Z,4.75
2023-04-15T03:30:51.489Z,4.71
2023-04-15T03:33:17.949Z,4.69
2023-04-15T03:35:44.495Z,4.70
2023-04-15T03:38:10.878Z,4.66
2023-04-15T03:40:37.304Z,4.65
2023-04-15T03:43:03.672Z,4.62
2023-04-15T03:45:30.339Z,4.60
2023-04-15T03:48:03.565Z,4.62
2023-04-15T03:50:37.741Z,4.57
2023-04-15T03:53:04.163Z,4.55
2023-04-15T03:55:30.597Z,4.51
2023-04-15T03:57:57.065Z,4.50
2023-04-15T04:00:23.517Z,4.47
2023-04-15T04:02:49.996Z,4.45
2023-04-15T04:05:16.692Z,4.43
2023-04-15T04:07:43.115Z,4.43
2023-04-15T04:10:09.708Z,4.34
2023-04-15T04:12:36.239Z,4.34
2023-04-15T04:15:02.979Z,4.33
2023-04-15T04:17:29.501Z,4.30
2023-04-15T04:19:56.043Z,4.29
2023-04-15T04:22:24.094Z,4.26
2023-04-15T04:24:50.860Z,4.19
2023-04-15T04:27:17.346Z,4.20
2023-04-15T04:29:43.932Z,4.13
2023-04-15T04:32:10.681Z,4.13
2023-04-15T04:34:37.176Z,4.15
2023-04-15T04:37:03.632Z,4.14
2023-04-15T04:39:30.047Z,4.12
2023-04-15T04:41:56.490Z,4.11
2023-04-15T04:44:22.925Z,4.16
2023-04-15T04:46:49.329Z,4.15
2023-04-15T04:49:15.747Z,4.15
2023-04-15T04:51:42.234Z,4.11
2023-04-15T04:54:08.628Z,4.13
2023-04-15T04:56:35.008Z,4.12
2023-04-15T04:59:01.941Z,4.14
2023-04-15T05:01:28.581Z,4.09
2023-04-15T05:03:55.414Z,4.06
2023-04-15T05:06:21.989Z,4.05
2023-04-15T05:08:48.621Z,4.06
2023-04-15T05:11:15.000Z,4.09
2023-04-15T05:13:41.390Z,4.09
2023-04-15T05:16:08.303Z,4.08
2023-04-15T05:18:35.040Z,4.07
2023-04-15T05:21:02.588Z,4.13
2023-04-15T05:23:29.127Z,4.12
2023-04-15T05:25:55.596Z,4.07
2023-04-15T05:28:22.066Z,4.07
2023-04-15T05:30:48.809Z,4.08
2023-04-15T05:33:15.778Z,4.12
2023-04-15T05:35:42.196Z,4.19
2023-04-15T05:38:08.608Z,4.28
2023-04-15T05:40:35.002Z,4.33
2023-04-15T05:43:01.474Z,4.39
2023-04-15T05:45:27.928Z,4.44
2023-04-15T05:47:54.608Z,4.50
2023-04-15T05:50:22.024Z,4.58
2023-04-15T05:52:48.484Z,4.64
2023-04-15T05:55:14.863Z,4.68
2023-04-15T05:57:41.395Z,4.75
2023-04-15T06:00:08.261Z,4.81
2023-04-15T06:02:37.855Z,4.85
2023-04-15T06:05:09.656Z,4.90
2023-04-15T06:07:37.013Z,4.94
2023-04-15T06:10:05.721Z,4.99
2023-04-15T06:12:32.187Z,5.08
2023-04-15T06:15:00.026Z,5.20
2023-04-15T06:17:26.877Z,5.27
2023-04-15T06:19:56.503Z,5.40
2023-04-15T06:22:23.986Z,5.47
2023-04-15T06:24:51.505Z,5.55
2023-04-15T06:27:17.989Z,5.70
2023-04-15T06:29:44.778Z,5.84
2023-04-15T06:32:12.938Z,6.05
2023-04-15T06:34:39.402Z,6.20
2023-04-15T06:37:06.538Z,6.33
2023-04-15T06:39:33.129Z,6.45
2023-04-15T06:41:59.600Z,6.61
2023-04-15T06:44:26.160Z,6.80
2023-04-15T06:46:52.668Z,6.97
2023-04-15T06:49:19.045Z,7.14
2023-04-15T06:51:45.498Z,7.29
2023-04-15T06:54:11.974Z,7.46
2023-04-15T06:56:38.440Z,7.68
2023-04-15T06:59:04.843Z,7.82
2023-04-15T07:01:31.284Z,8.04
2023-04-15T07:03:57.744Z,8.19
2023-04-15T07:06:24.729Z,8.42
2023-04-15T07:08:51.284Z,8.62
2023-04-15T07:11:18.421Z,8.87
2023-04-15T07:13:44.874Z,9.61
2023-04-15T07:16:11.320Z,9.78
2023-04-15T07:18:37.940Z,9.98
2023-04-15T07:21:04.584Z,10.39
2023-04-15T07:23:31.364Z,11.00
2023-04-15T07:25:57.753Z,11.85
2023-04-15T07:28:24.169Z,12.04
2023-04-15T07:30:50.579Z,12.62
2023-04-15T07:33:17.024Z,13.23
2023-04-15T07:35:43.545Z,13.45
2023-04-15T07:38:09.984Z,14.05
2023-04-15T07:40:36.433Z,14.32
2023-04-15T07:43:03.446Z,14.23
2023-04-15T07:45:30.050Z,14.34
2023-04-15T07:47:56.696Z,13.69
2023-04-15T07:50:23.620Z,13.28
2023-04-15T07:52:51.454Z,13.54
2023-04-15T07:55:19.988Z,13.38
2023-04-15T07:57:47.404Z,13.10
2023-04-15T08:00:14.864Z,13.42
2023-04-15T08:02:42.685Z,13.81
2023-04-15T08:05:10.738Z,14.18
2023-04-15T08:07:38.395Z,14.11
2023-04-15T08:10:05.631Z,13.72
2023-04-15T08:12:32.113Z,13.95
2023-04-15T08:14:58.757Z,14.54
2023-04-15T08:17:25.460Z,14.71
2023-04-15T08:19:52.195Z,14.51
2023-04-15T08:22:20.100Z,14.50
2023-04-15T08:24:47.668Z,14.27
2023-04-15T08:27:14.170Z,14.86
2023-04-15T08:29:40.669Z,14.53
2023-04-15T08:32:07.593Z,14.17
2023-04-15T08:34:34.738Z,14.14
2023-04-15T08:37:01.277Z,13.49
2023-04-15T08:39:28.184Z,12.88
2023-04-15T08:42:07.088Z,12.03
2023-04-15T08:44:34.914Z,11.76
2023-04-15T08:47:02.752Z,11.32
2023-04-15T08:49:30.446Z,11.32
2023-04-15T08:51:59.662Z,11.43
2023-04-15T08:54:27.187Z,11.19
2023-04-15T08:56:54.336Z,10.92
2023-04-15T08:59:24.121Z,11.16
2023-04-15T09:01:53.550Z,11.44
2023-04-15T09:04:20.116Z,11.74
2023-04-15T09:06:46.989Z,11.76
2023-04-15T09:09:14.486Z,11.60
2023-04-15T09:11:42.092Z,11.52
2023-04-15T09:14:08.534Z,11.37
2023-04-15T09:16:57.766Z,11.56
2023-04-15T09:19:25.675Z,11.70
2023-04-15T09:21:59.093Z,11.56
2023-04-15T09:24:33.628Z,11.21
2023-04-15T09:27:00.466Z,11.14
2023-04-15T09:29:27.007Z,11.18
2023-04-15T09:31:53.544Z,10.98
2023-04-15T09:34:21.399Z,11.12
2023-04-15T09:36:49.216Z,11.15
2023-04-15T09:39:16.159Z,11.49
2023-04-15T09:41:43.656Z,11.52
2023-04-15T09:44:26.249Z,11.63
2023-04-15T09:46:52.784Z,11.58
2023-04-15T09:49:20.693Z,11.52
2023-04-15T09:51:58.008Z,11.60
2023-04-15T09:54:37.863Z,11.41
2023-04-15T09:57:09.864Z,11.38
2023-04-15T09:59:36.414Z,11.53
2023-04-15T10:02:06.312Z,11.56
2023-04-15T10:04:36.597Z,11.64
2023-04-15T10:07:05.153Z,11.55
2023-04-15T10:09:33.662Z,11.80
2023-04-15T10:12:01.133Z,11.88
2023-04-15T10:14:32.245Z,12.11
2023-04-15T10:17:01.925Z,12.28
2023-04-15T10:19:32.526Z,12.32
2023-04-15T10:21:59.697Z,12.21
2023-04-15T10:24:27.722Z,12.15
2023-04-15T10:26:55.282Z,12.13
2023-04-15T10:29:23.274Z,12.04
2023-04-15T10:31:50.079Z,12.56
2023-04-15T10:34:18.417Z,12.55
2023-04-15T10:36:46.928Z,12.67
2023-04-15T10:39:42.925Z,12.18
2023-04-15T10:42:10.737Z,12.12
2023-04-15T10:44:38.781Z,12.16
2023-04-15T10:47:12.097Z,12.20
2023-04-15T10:49:46.807Z,12.15
2023-04-15T10:52:15.549Z,12.32
2023-04-15T10:54:42.125Z,12.27
2023-04-15T10:57:14.948Z,12.32
2023-04-15T11:00:06.613Z,12.17
2023-04-15T11:02:40.045Z,12.35
2023-04-15T11:05:07.431Z,12.61
2023-04-15T11:07:38.218Z,12.38
2023-04-15T11:10:13.659Z,12.40
2023-04-15T11:12:41.283Z,12.52
2023-04-15T11:15:30.452Z,12.52
2023-04-15T11:17:58.276Z,13.00
2023-04-15T11:20:25.282Z,12.79
2023-04-15T11:23:08.383Z,12.75
2023-04-15T11:25:40.199Z,12.90
2023-04-15T11:28:07.578Z,13.09
2023-04-15T11:30:35.693Z,13.05
2023-04-15T11:33:07.023Z,13.06
2023-04-15T11:35:33.594Z,13.44
2023-04-15T11:38:08.761Z,13.60
2023-04-15T11:40:35.810Z,13.62
2023-04-15T11:43:09.439Z,14.23
2023-04-15T11:45:37.223Z,13.89
2023-04-15T11:48:13.287Z,13.55
2023-04-15T11:50:43.188Z,12.99
2023-04-15T11:53:11.873Z,13.17
2023-04-15T11:55:52.154Z,13.27
2023-04-15T11:58:23.954Z,13.01
2023-04-15T12:00:55.358Z,13.28
2023-04-15T12:03:39.697Z,13.45
2023-04-15T12:06:13.910Z,13.66
2023-04-15T12:08:55.494Z,14.06
2023-04-15T12:11:30.926Z,14.01
2023-04-15T12:14:02.705Z,13.66
2023-04-15T12:16:29.741Z,13.28
2023-04-15T12:18:58.790Z,13.03
2023-04-15T12:21:27.399Z,13.05
2023-04-15T12:23:55.745Z,12.88
2023-04-15T12:26:31.282Z,12.65
2023-04-15T12:29:02.261Z,12.81
2023-04-15T12:31:29.116Z,12.77
2023-04-15T12:33:56.741Z,13.07
2023-04-15T12:36:23.838Z,13.08
2023-04-15T12:38:50.459Z,12.77
2023-04-15T12:41:16.853Z,13.06
2023-04-15T12:43:49.200Z,12.71
2023-04-15T12:46:15.734Z,12.59
2023-04-15T12:48:42.508Z,12.49
2023-04-15T12:51:09.016Z,12.64
2023-04-15T12:53:35.590Z,12.65
2023-04-15T12:56:02.143Z,12.50
2023-04-15T12:58:28.793Z,12.59
2023-04-15T13:00:55.293Z,12.54
2023-04-15T13:03:21.748Z,12.64
2023-04-15T13:05:48.241Z,12.60
2023-04-15T13:08:14.734Z,12.71
2023-04-15T13:10:42.387Z,12.48
2023-04-15T13:13:08.938Z,12.65
2023-04-15T13:15:35.439Z,12.74
2023-04-15T13:18:02.050Z,12.44
2023-04-15T13:20:28.629Z,12.18
2023-04-15T13:22:55.166Z,12.61
2023-04-15T13:25:21.789Z,12.96
2023-04-15T13:27:48.189Z,13.30
2023-04-15T13:30:14.741Z,13.26
2023-04-15T13:32:41.238Z,13.41
2023-04-15T13:35:08.020Z,13.31
2023-04-15T13:37:34.414Z,12.78
2023-04-15T13:40:01.074Z,12.67
2023-04-15T13:42:27.557Z,12.44
2023-04-15T13:44:54.081Z,12.33
2023-04-15T13:47:20.720Z,12.27
2023-04-15T13:49:47.305Z,12.36
2023-04-15T13:52:13.713Z,12.29
2023-04-15T13:54:40.146Z,12.17
2023-04-15T13:57:06.875Z,11.80
2023-04-15T13:59:34.752Z,11.45
2023-04-15T14:02:01.724Z,11.20
2023-04-15T14:04:28.262Z,11.23
2023-04-15T14:06:54.850Z,11.36
2023-04-15T14:09:26.281Z,11.21
2023-04-15T14:11:52.919Z,11.09
2023-04-15T14:14:19.357Z,11.00
2023-04-15T14:16:45.844Z,11.05
2023-04-15T14:19:12.369Z,11.04
2023-04-15T14:21:38.806Z,10.79
2023-04-15T14:24:05.759Z,10.74
2023-04-15T14:26:32.416Z,10.64
2023-04-15T14:28:58.876Z,10.63
2023-04-15T14:31:25.451Z,10.55
2023-04-15T14:33:51.986Z,10.53
2023-04-15T14:36:18.500Z,10.67
2023-04-15T14:38:45.793Z,10.89
2023-04-15T14:41:13.270Z,10.88
2023-04-15T14:43:39.700Z,10.71
2023-04-15T14:46:06.415Z,10.56
2023-04-15T14:48:32.942Z,10.52
2023-04-15T14:50:59.546Z,10.34
2023-04-15T14:53:26.061Z,10.22
2023-04-15T14:55:52.464Z,10.35
2023-04-15T14:58:18.908Z,10.52
2023-04-15T15:00:45.911Z,10.35
2023-04-15T15:03:13.024Z,10.34
2023-04-15T15:05:41.194Z,10.31
2023-04-15T15:08:09.100Z,10.19
2023-04-15T15:10:49.307Z,10.15
2023-04-15T15:13:17.512Z,10.08
2023-04-15T15:15:44.031Z,10.05
2023-04-15T15:18:10.826Z,10.13
2023-04-15T15:20:37.258Z,10.04
2023-04-15T15:23:03.734Z,10.03
2023-04-15T15:25:30.316Z,9.91
2023-04-15T15:27:57.528Z,9.85
2023-04-15T15:30:24.088Z,9.70
2023-04-15T15:32:50.763Z,9.59
2023-04-15T15:35:17.328Z,9.42
2023-04-15T15:37:45.830Z,9.44
2023-04-15T15:40:12.556Z,9.56
2023-04-15T15:42:38.985Z,9.50
2023-04-15T15:45:05.996Z,9.42
2023-04-15T15:47:32.531Z,9.41
2023-04-15T15:50:00.293Z,9.53
2023-04-15T15:52:27.013Z,9.53
2023-04-15T15:54:53.406Z,9.50
2023-04-15T15:57:19.779Z,9.42
2023-04-15T15:59:46.286Z,9.40
2023-04-15T16:02:14.484Z,9.31
2023-04-15T16:04:43.086Z,9.29
2023-04-15T16:07:11.649Z,9.39
2023-04-15T16:09:40.432Z,9.24
2023-04-15T16:12:06.908Z,9.32
2023-04-15T16:14:33.285Z,9.31
2023-04-15T16:16:59.727Z,9.23
2023-04-15T16:19:26.222Z,9.17
2023-04-15T16:21:53.395Z,9.10
2023-04-15T16:24:19.853Z,8.94
2023-04-15T16:26:46.339Z,8.98
2023-04-15T16:29:12.788Z,9.03
2023-04-15T16:31:39.968Z,9.06
2023-04-15T16:34:06.436Z,9.03
2023-04-15T16:36:34.799Z,8.98
2023-04-15T16:39:01.344Z,8.93
2023-04-15T16:41:28.485Z,8.87
2023-04-15T16:43:56.792Z,8.99
2023-04-15T16:46:23.272Z,8.88
2023-04-15T16:48:49.668Z,8.82
2023-04-15T16:51:16.079Z,8.88
2023-04-15T16:53:42.519Z,8.86
2023-04-15T16:56:09.020Z,8.75
2023-04-15T16:58:35.445Z,8.73
2023-04-15T17:01:02.337Z,8.80
2023-04-15T17:03:28.984Z,8.80
2023-04-15T17:05:55.785Z,8.59
2023-04-15T17:08:22.170Z,8.62
2023-04-15T17:10:49.030Z,8.57
2023-04-15T17:13:15.615Z,8.51
2023-04-15T17:15:42.085Z,8.40
2023-04-15T17:18:09.198Z,8.39
2023-04-15T17:20:35.833Z,8.44
2023-04-15T17:23:02.319Z,8.36
2023-04-15T17:25:30.544Z,8.36
2023-04-15T17:27:56.974Z,8.28
2023-04-15T17:30:23.605Z,8.25
2023-04-15T17:32:51.400Z,8.21
2023-04-15T17:35:18.269Z,8.21
2023-04-15T17:37:46.238Z,8.25
2023-04-15T17:40:13.721Z,8.16
2023-04-15T17:42:41.249Z,8.10
2023-04-15T17:45:08.159Z,8.16
2023-04-15T17:47:34.627Z,8.08
2023-04-15T17:50:01.085Z,8.09
2023-04-15T17:52:27.582Z,8.02
2023-04-15T17:54:54.005Z,7.94
2023-04-15T17:57:20.567Z,7.96
2023-04-15T17:59:47.850Z,7.95
2023-04-15T18:02:15.051Z,7.96
2023-04-15T18:04:41.772Z,8.01
2023-04-15T18:07:08.670Z,7.98
2023-04-15T18:09:36.051Z,7.97
2023-04-15T18:12:04.345Z,7.96
2023-04-15T18:14:34.659Z,7.96
2023-04-15T18:17:04.735Z,7.94
2023-04-15T18:19:31.747Z,7.93
2023-04-15T18:22:00.135Z,7.89
2023-04-15T18:24:26.958Z,7.86
2023-04-15T18:26:53.883Z,7.87
2023-04-15T18:29:20.352Z,7.90
2023-04-15T18:31:46.903Z,7.84
2023-04-15T18:34:13.392Z,7.84
2023-04-15T18:36:39.959Z,7.80
2023-04-15T18:39:06.576Z,7.77
2023-04-15T18:41:33.235Z,7.77
2023-04-15T18:43:59.690Z,7.76
2023-04-15T18:46:26.228Z,7.74
2023-04-15T18:48:52.669Z,7.68
2023-04-15T18:51:19.100Z,7.63
2023-04-15T18:53:45.570Z,7.60
2023-04-15T18:56:12.058Z,7.56
2023-04-15T18:59:10.108Z,7.56
2023-04-15T19:01:24.883Z,7.56
2023-04-15T19:03:51.397Z,7.52
2023-04-15T19:06:17.879Z,7.52
2023-04-15T19:08:44.358Z,7.54
2023-04-15T19:11:10.952Z,7.54
2023-04-15T19:13:37.403Z,7.54
2023-04-15T19:16:04.075Z,7.51
2023-04-15T19:18:30.621Z,7.50
2023-04-15T19:20:57.574Z,7.49
2023-04-15T19:23:24.047Z,7.47
2023-04-15T19:25:50.431Z,7.43
2023-04-15T19:28:16.836Z,7.38
2023-04-15T19:30:43.238Z,7.40
2023-04-15T19:33:09.732Z,7.41
2023-04-15T19:35:38.161Z,7.40
2023-04-15T19:38:04.850Z,7.40
2023-04-15T19:40:31.237Z,7.43
2023-04-15T19:42:57.612Z,7.40
2023-04-15T19:45:24.047Z,7.39
2023-04-15T19:47:50.792Z,7.38
2023-04-15T19:50:17.811Z,7.40
2023-04-15T19:52:44.194Z,7.40
2023-04-15T19:55:10.632Z,7.42
2023-04-15T19:57:36.998Z,7.43
2023-04-15T20:00:03.693Z,7.43
2023-04-15T20:02:32.260Z,7.47
2023-04-15T20:04:58.738Z,7.47
2023-04-15T20:07:25.268Z,7.47
2023-04-15T20:09:52.359Z,7.44
2023-04-15T20:12:51.426Z,7.44
2023-04-15T20:15:07.289Z,7.47
2023-04-15T20:17:34.091Z,7.46
2023-04-15T20:20:00.617Z,7.46
2023-04-15T20:22:27.016Z,7.47
2023-04-15T20:24:53.435Z,7.49
2023-04-15T20:27:22.740Z,7.51
2023-04-15T20:29:49.788Z,7.49
2023-04-15T20:32:17.912Z,7.50
2023-04-15T20:34:44.807Z,7.51
2023-04-15T20:37:12.247Z,7.50
2023-04-15T20:39:40.584Z,7.47
2023-04-15T20:42:10.175Z,7.48
2023-04-15T20:44:38.571Z,7.50
2023-04-15T20:47:08.447Z,7.49
2023-04-15T20:49:36.528Z,7.48
2023-04-15T20:52:07.307Z,7.46
2023-04-15T20:54:34.009Z,7.47
2023-04-15T20:57:01.328Z,7.45
2023-04-15T20:59:28.017Z,7.46
2023-04-15T21:01:56.767Z,7.46
2023-04-15T21:04:24.335Z,7.46
2023-04-15T21:06:52.101Z,7.45
2023-04-15T21:09:18.781Z,7.42
2023-04-15T21:12:00.377Z,7.42
2023-04-15T21:14:27.287Z,7.43
2023-04-15T21:16:53.816Z,7.43
2023-04-15T21:19:20.197Z,7.38
2023-04-15T21:21:46.628Z,7.37
2023-04-15T21:24:13.003Z,7.36
2023-04-15T21:26:39.376Z,7.41
2023-04-15T21:29:07.906Z,7.40
2023-04-15T21:31:36.045Z,7.35
2023-04-15T21:34:02.482Z,7.34
2023-04-15T21:36:28.980Z,7.37
2023-04-15T21:38:55.349Z,7.41
2023-04-15T21:41:21.791Z,7.43
2023-04-15T21:43:48.421Z,7.41
2023-04-15T21:46:22.386Z,7.40
2023-04-15T21:48:52.583Z,7.40
2023-04-15T21:51:19.076Z,7.38
2023-04-15T21:53:45.580Z,7.35
2023-04-15T21:56:12.078Z,7.36
2023-04-15T21:58:38.499Z,7.37
2023-04-15T22:01:05.122Z,7.38
2023-04-15T22:03:33.886Z,7.38
2023-04-15T22:06:01.796Z,7.41
2023-04-15T22:08:28.334Z,7.42
2023-04-15T22:10:55.366Z,7.45
2023-04-15T22:13:21.735Z,7.47
2023-04-15T22:15:48.212Z,7.48
2023-04-15T22:18:14.774Z,7.48
2023-04-15T22:20:41.437Z,7.51
2023-04-15T22:23:08.904Z,7.54
2023-04-15T22:25:38.278Z,7.53
2023-04-15T22:28:09.649Z,7.53
2023-04-15T22:30:41.031Z,7.56
2023-04-15T22:33:09.285Z,7.57
2023-04-15T22:35:37.182Z,7.51
2023-04-15T22:38:04.882Z,7.54
2023-04-15T22:40:31.425Z,7.55
2023-04-15T22:42:57.918Z,7.55
2023-04-15T22:45:24.341Z,7.56
2023-04-15T22:47:50.810Z,7.59
2023-04-15T22:50:17.402Z,7.60
2023-04-15T22:52:46.094Z,7.61
2023-04-15T22:55:12.608Z,7.61
2023-04-15T22:57:39.000Z,7.59
2023-04-15T23:00:06.277Z,7.59
2023-04-15T23:02:33.298Z,7.60
2023-04-15T23:04:59.961Z,7.62
2023-04-15T23:07:28.949Z,7.62
2023-04-15T23:09:55.324Z,7.63
2023-04-15T23:12:21.707Z,7.62
2023-04-15T23:14:48.072Z,7.66
2023-04-15T23:17:14.485Z,7.63
2023-04-15T23:19:41.112Z,7.63
2023-04-15T23:22:10.398Z,7.62
2023-04-15T23:24:36.870Z,7.61
2023-04-15T23:27:03.408Z,7.63
2023-04-15T23:29:29.777Z,7.64
2023-04-15T23:31:56.912Z,7.66
2023-04-15T23:34:23.560Z,7.68
2023-04-15T23:36:49.958Z,7.67
2023-04-15T23:39:16.427Z,7.67
2023-04-15T23:41:42.864Z,7.65
2023-04-15T23:44:09.726Z,7.66
2023-04-15T23:46:36.181Z,7.64
2023-04-15T23:49:02.618Z,7.66
2023-04-15T23:51:29.043Z,7.67
2023-04-15T23:53:55.487Z,7.68
2023-04-15T23:56:21.855Z,7.64
2023-04-15T23:58:48.271Z,7.64
